Time;durP1;ratioP1;P1;durP2;ratioP2;P2;SDS_P1;SDS_P2;PMS_P1;PMS_P2;Temp;Humidity;BMP_temperature;BMP_pressure;BME280_temperature;BME280_humidity;BME280_pressure;Samples;Min_cycle;Max_cycle;Signal;HPM_P1;HPM_P2
2022/09/13 00:01:16;;;;;;;5.60;3.63;;;21.20;62.40;;;;;;6210392;23;20776;-66
2022/09/13 00:03:41;;;;;;;4.45;3.90;;;21.20;62.50;;;;;;6209935;23;20103;-66
2022/09/13 00:06:12;;;;;;;5.10;3.80;;;21.20;62.40;;;;;;6210347;23;20051;-66
2022/09/13 00:08:38;;;;;;;4.70;3.97;;;21.20;62.50;;;;;;6210679;23;19997;-66
2022/09/13 00:11:04;;;;;;;6.07;4.10;;;21.10;62.40;;;;;;6210689;23;20395;-66
2022/09/13 00:13:30;;;;;;;5.43;4.20;;;21.10;62.40;;;;;;6210380;23;20011;-66
2022/09/13 00:15:55;;;;;;;4.75;3.95;;;21.10;62.50;;;;;;6209261;23;20013;-66
2022/09/13 00:18:21;;;;;;;5.55;4.50;;;21.10;62.40;;;;;;6210403;23;20078;-66
2022/09/13 00:20:47;;;;;;;5.40;3.83;;;21.10;62.40;;;;;;6211024;23;20005;-66
2022/09/13 00:23:12;;;;;;;3.65;3.17;;;21.20;62.50;;;;;;6210603;23;20016;-66
2022/09/13 00:25:38;;;;;;;5.35;4.18;;;21.10;62.40;;;;;;6210907;23;20115;-66
2022/09/13 00:28:04;;;;;;;5.03;4.18;;;21.10;62.40;;;;;;6210227;23;20476;-66
2022/09/13 00:30:30;;;;;;;5.65;4.53;;;21.10;62.50;;;;;;6210638;23;20004;-66
2022/09/13 00:32:56;;;;;;;5.80;4.95;;;21.10;62.60;;;;;;6210471;23;20001;-66
2022/09/13 00:35:22;;;;;;;6.32;5.47;;;21.10;62.80;;;;;;6211278;23;20012;-66
2022/09/13 00:37:48;;;;;;;6.45;4.72;;;21.00;62.90;;;;;;6210707;23;20070;-66
2022/09/13 00:40:14;;;;;;;6.75;5.35;;;21.00;62.90;;;;;;6210725;23;20004;-66
2022/09/13 00:42:39;;;;;;;6.80;5.05;;;21.00;63.10;;;;;;6210879;23;20012;-66
2022/09/13 00:45:11;;;;;;;5.82;4.80;;;21.00;63.20;;;;;;6210993;23;20007;-66
2022/09/13 00:47:52;;;;;;;5.88;4.43;;;20.90;63.20;;;;;;6210533;23;19997;-67
2022/09/13 00:50:46;;;;;;;5.60;4.10;;;20.90;63.30;;;;;;6210467;23;20001;-66
2022/09/13 00:53:21;;;;;;;6.53;4.85;;;20.90;63.30;;;;;;6201872;23;20005;-66
2022/09/13 00:56:00;;;;;;;6.15;4.53;;;20.90;63.40;;;;;;6206096;23;20015;-66
2022/09/13 00:58:33;;;;;;;5.47;4.65;;;20.90;63.50;;;;;;6210010;23;20000;-66
2022/09/13 01:01:02;;;;;;;6.65;4.95;;;21.00;63.60;;;;;;6210718;23;20008;-66
2022/09/13 01:03:30;;;;;;;5.53;4.75;;;20.90;63.50;;;;;;6210874;23;20370;-66
2022/09/13 01:06:07;;;;;;;7.80;5.07;;;20.90;63.60;;;;;;6210811;23;20004;-66
2022/09/13 01:08:35;;;;;;;6.13;5.40;;;20.90;63.80;;;;;;6210599;23;20004;-65
2022/09/13 01:11:03;;;;;;;6.63;5.00;;;20.90;63.90;;;;;;6211419;23;19996;-65
2022/09/13 01:13:31;;;;;;;8.27;5.18;;;20.80;64.00;;;;;;6210652;23;20009;-64
2022/09/13 01:15:58;;;;;;;5.15;4.65;;;20.80;64.20;;;;;;6210836;23;20009;-64
2022/09/13 01:18:24;;;;;;;7.38;5.00;;;20.80;64.30;;;;;;6210237;23;20004;-65
2022/09/13 01:21:11;;;;;;;4.82;4.30;;;20.80;64.50;;;;;;6209981;23;20010;-66
2022/09/13 01:24:06;;;;;;;5.30;4.70;;;20.80;64.60;;;;;;6211271;23;20492;-66
2022/09/13 01:27:00;;;;;;;4.95;4.30;;;20.80;64.70;;;;;;6210724;23;20005;-66
2022/09/13 01:30:22;;;;;;;6.68;5.43;;;20.80;64.80;;;;;;6211045;23;20004;-65
2022/09/13 01:33:13;;;;;;;5.28;4.60;;;20.70;65.00;;;;;;6206712;23;20015;-67
2022/09/13 01:35:56;;;;;;;5.40;4.47;;;20.70;65.10;;;;;;6212489;23;20005;-68
2022/09/13 01:38:27;;;;;;;6.32;4.90;;;20.70;65.10;;;;;;6212357;23;20064;-66
2022/09/13 01:41:05;;;;;;;5.35;4.85;;;20.70;65.30;;;;;;6212332;23;20004;-64
2022/09/13 01:43:59;;;;;;;5.50;4.70;;;20.70;65.40;;;;;;6210338;23;20011;-65
2022/09/13 01:46:37;;;;;;;5.88;4.68;;;20.60;65.40;;;;;;6190813;23;20082;-66
2022/09/13 01:49:31;;;;;;;6.57;4.80;;;20.60;65.40;;;;;;6209607;23;20047;-66
2022/09/13 01:52:15;;;;;;;7.18;5.30;;;20.60;65.50;;;;;;6169837;23;20006;-66
2022/09/13 01:55:11;;;;;;;5.95;5.18;;;20.60;65.50;;;;;;6211293;23;20004;-67
2022/09/13 01:57:56;;;;;;;5.47;4.72;;;20.50;65.50;;;;;;6211674;23;20007;-66
2022/09/13 02:00:21;;;;;;;5.75;4.70;;;20.50;65.50;;;;;;6211413;23;19997;-66
2022/09/13 02:03:06;;;;;;;5.47;4.80;;;20.50;65.60;;;;;;6210882;23;20015;-66
2022/09/13 02:05:53;;;;;;;6.60;5.05;;;20.50;65.70;;;;;;6211846;23;20000;-65
2022/09/13 02:08:23;;;;;;;5.57;4.35;;;20.50;65.90;;;;;;6209879;23;20003;-65
2022/09/13 02:11:06;;;;;;;5.03;4.45;;;20.40;65.80;;;;;;6210489;23;20008;-65
2022/09/13 02:13:37;;;;;;;5.93;4.65;;;20.40;65.80;;;;;;6210928;23;20013;-65
2022/09/13 02:16:18;;;;;;;5.10;4.60;;;20.40;65.80;;;;;;6211328;23;20000;-65
2022/09/13 02:18:50;;;;;;;5.57;4.60;;;20.40;65.70;;;;;;6210922;23;20352;-65
2022/09/13 02:21:24;;;;;;;5.57;4.47;;;20.50;65.80;;;;;;6211472;23;20381;-65
2022/09/13 02:24:02;;;;;;;5.63;4.22;;;20.40;65.60;;;;;;6211464;23;20100;-65
2022/09/13 02:26:30;;;;;;;5.03;4.50;;;20.40;65.70;;;;;;6210699;23;20328;-65
2022/09/13 02:28:59;;;;;;;5.63;4.28;;;20.40;65.70;;;;;;6210930;23;20000;-65
2022/09/13 02:31:39;;;;;;;4.80;4.22;;;20.50;65.70;;;;;;6211360;23;20083;-65
2022/09/13 02:34:17;;;;;;;6.28;4.32;;;20.50;65.70;;;;;;6210616;23;20477;-66
2022/09/13 02:36:47;;;;;;;4.97;4.25;;;20.50;65.70;;;;;;6210674;23;20004;-66
2022/09/13 02:39:15;;;;;;;6.72;4.45;;;20.50;65.70;;;;;;6210903;23;20024;-66
2022/09/13 02:42:10;;;;;;;6.00;4.25;;;20.50;65.70;;;;;;6210664;23;20027;-66
2022/09/13 02:44:45;;;;;;;5.90;4.57;;;20.50;65.90;;;;;;6210090;23;20008;-66
2022/09/13 02:47:31;;;;;;;5.80;4.50;;;20.40;66.00;;;;;;6211502;23;20004;-67
2022/09/13 02:50:13;;;;;;;3.85;3.45;;;20.40;66.00;;;;;;6211611;23;20015;-66
2022/09/13 02:52:56;;;;;;;5.25;4.20;;;20.40;66.00;;;;;;6212323;23;20127;-66
2022/09/13 02:55:29;;;;;;;4.80;4.30;;;20.30;66.20;;;;;;6212109;23;20604;-66
2022/09/13 02:58:10;;;;;;;4.80;4.30;;;20.30;66.50;;;;;;6212403;23;20028;-66
2022/09/13 03:00:36;;;;;;;6.13;4.45;;;20.30;66.50;;;;;;6212280;23;20031;-66
2022/09/13 03:03:04;;;;;;;6.03;5.03;;;20.20;66.60;;;;;;6212322;23;20009;-66
2022/09/13 03:05:30;;;;;;;7.50;5.25;;;20.20;66.80;;;;;;6212630;23;20047;-66
2022/09/13 03:07:56;;;;;;;5.18;4.50;;;20.10;67.00;;;;;;6212375;23;20008;-66
2022/09/13 03:10:23;;;;;;;5.60;5.07;;;20.10;67.10;;;;;;6212494;23;20449;-65
2022/09/13 03:13:10;;;;;;;5.70;5.10;;;20.10;67.20;;;;;;6212356;23;20005;-64
2022/09/13 03:15:44;;;;;;;5.20;4.65;;;20.10;67.20;;;;;;6210496;23;20011;-65
2022/09/13 03:18:28;;;;;;;5.15;4.50;;;20.10;67.30;;;;;;6210856;23;20706;-65
2022/09/13 03:21:23;;;;;;;6.78;5.30;;;20.10;67.40;;;;;;6210134;23;20001;-66
2022/09/13 03:24:27;;;;;;;6.60;5.40;;;20.10;67.30;;;;;;6210072;23;20014;-66
2022/09/13 03:27:17;;;;;;;5.72;5.13;;;20.10;67.40;;;;;;6119083;23;20089;-66
2022/09/13 03:29:57;;;;;;;8.30;5.13;;;20.00;67.40;;;;;;6119432;23;20037;-66
2022/09/13 03:32:47;;;;;;;5.93;5.25;;;20.10;67.50;;;;;;6185235;23;20013;-65
2022/09/13 03:36:04;;;;;;;7.13;5.28;;;20.10;67.40;;;;;;6211670;23;20341;-66
2022/09/13 03:38:38;;;;;;;6.53;5.57;;;20.10;67.20;;;;;;6160638;23;20012;-65
2022/09/13 03:41:10;;;;;;;6.40;5.28;;;20.20;67.20;;;;;;6211595;23;20004;-66
2022/09/13 03:43:50;;;;;;;;;;;20.10;67.20;;;;;;6211623;23;20018;-65
2022/09/13 03:46:30;;;;;;;7.10;5.13;;;20.10;67.10;;;;;;6211288;23;19927;-66
2022/09/13 03:48:59;;;;;;;7.68;5.85;;;20.10;67.20;;;;;;6211074;23;19997;-66
2022/09/13 03:51:25;;;;;;;6.53;5.65;;;20.10;67.20;;;;;;6210736;23;19997;-66
2022/09/13 03:54:03;;;;;;;7.28;5.55;;;20.10;67.20;;;;;;6210978;23;20012;-66
2022/09/13 03:56:29;;;;;;;6.15;5.18;;;20.20;67.20;;;;;;6210715;23;20349;-66
2022/09/13 03:58:55;;;;;;;6.50;5.45;;;20.20;67.20;;;;;;6211287;23;20005;-66
2022/09/13 04:01:23;;;;;;;6.10;5.47;;;20.10;67.20;;;;;;6211075;23;20005;-66
2022/09/13 04:03:49;;;;;;;7.03;5.93;;;20.10;67.30;;;;;;6211219;23;20173;-66
2022/09/13 04:06:15;;;;;;;6.93;5.72;;;20.10;67.30;;;;;;6211328;23;20314;-65
2022/09/13 04:08:41;;;;;;;7.25;5.78;;;20.10;67.30;;;;;;6210444;23;20035;-66
2022/09/13 04:11:08;;;;;;;7.05;5.65;;;20.10;67.40;;;;;;6210553;23;20000;-66
2022/09/13 04:13:35;;;;;;;6.55;5.18;;;20.10;67.40;;;;;;6209821;23;20004;-66
2022/09/13 04:16:02;;;;;;;6.22;5.18;;;20.10;67.40;;;;;;6210534;23;20013;-66
2022/09/13 04:18:28;;;;;;;7.70;5.20;;;20.10;67.50;;;;;;6209894;23;20020;-66
2022/09/13 04:20:58;;;;;;;6.20;5.10;;;20.10;67.50;;;;;;6210062;23;20012;-65
2022/09/13 04:23:26;;;;;;;6.05;5.15;;;20.10;67.50;;;;;;6209810;23;20647;-64
2022/09/13 04:25:52;;;;;;;6.70;5.32;;;20.10;67.60;;;;;;6208665;23;20119;-65
2022/09/13 04:28:18;;;;;;;6.30;5.45;;;20.00;67.60;;;;;;6209552;23;20009;-66
2022/09/13 04:30:44;;;;;;;6.97;5.80;;;20.00;67.80;;;;;;6208641;23;20054;-66
2022/09/13 04:33:10;;;;;;;8.50;6.30;;;20.10;67.80;;;;;;6212211;23;20008;-66
2022/09/13 04:35:38;;;;;;;6.55;5.55;;;20.10;67.80;;;;;;6212427;23;20043;-66
2022/09/13 04:38:04;;;;;;;7.28;5.85;;;20.10;67.80;;;;;;6212279;23;20008;-65
2022/09/13 04:40:30;;;;;;;5.65;5.05;;;20.10;67.90;;;;;;6211875;23;20051;-66
2022/09/13 04:42:55;;;;;;;6.88;5.50;;;20.10;67.90;;;;;;6212762;23;20004;-66
2022/09/13 04:45:21;;;;;;;8.38;6.55;;;20.10;67.90;;;;;;6211823;23;20000;-66
2022/09/13 04:47:52;;;;;;;8.02;6.60;;;20.10;68.00;;;;;;6212099;23;20002;-65
2022/09/13 04:50:19;;;;;;;8.30;7.18;;;20.00;68.10;;;;;;6211812;23;20003;-65
2022/09/13 04:52:45;;;;;;;7.90;6.55;;;20.00;68.40;;;;;;6212269;23;20004;-65
2022/09/13 04:55:11;;;;;;;6.90;6.20;;;19.90;68.60;;;;;;6212242;23;20370;-65
2022/09/13 04:57:36;;;;;;;6.95;6.15;;;19.90;68.70;;;;;;6210936;23;20008;-65
2022/09/13 05:00:03;;;;;;;6.10;5.47;;;19.90;68.70;;;;;;6211419;23;20363;-65
2022/09/13 05:02:28;;;;;;;7.65;6.10;;;19.90;68.70;;;;;;6211270;23;20001;-65
2022/09/13 05:04:55;;;;;;;6.82;5.75;;;20.00;68.80;;;;;;6211554;23;20115;-64
2022/09/13 05:07:21;;;;;;;7.22;5.75;;;20.00;68.70;;;;;;6212075;23;20311;-66
2022/09/13 05:09:46;;;;;;;7.45;5.63;;;20.00;68.70;;;;;;6212172;23;20003;-65
2022/09/13 05:12:12;;;;;;;7.80;5.95;;;20.00;68.60;;;;;;6212027;23;20000;-65
2022/09/13 05:14:37;;;;;;;6.20;5.57;;;20.00;68.50;;;;;;6210774;23;20004;-65
2022/09/13 05:17:03;;;;;;;6.70;5.93;;;20.10;68.50;;;;;;6210785;23;20444;-66
2022/09/13 05:19:28;;;;;;;7.13;5.38;;;20.10;68.40;;;;;;6211395;23;20330;-65
2022/09/13 05:21:54;;;;;;;5.78;5.03;;;20.10;68.40;;;;;;6211682;23;20011;-66
2022/09/13 05:24:20;;;;;;;6.85;5.30;;;20.10;68.40;;;;;;6212301;23;20012;-66
2022/09/13 05:26:45;;;;;;;7.05;5.60;;;20.10;68.50;;;;;;6212193;23;20005;-65
2022/09/13 05:29:11;;;;;;;7.03;5.80;;;20.10;68.60;;;;;;6212002;23;20384;-65
2022/09/13 05:31:39;;;;;;;8.05;6.18;;;20.20;68.70;;;;;;6210881;23;20000;-65
2022/09/13 05:34:10;;;;;;;7.22;6.30;;;20.20;68.70;;;;;;6211320;23;20024;-65
2022/09/13 05:36:36;;;;;;;7.30;6.03;;;20.20;68.90;;;;;;6210949;23;20001;-65
2022/09/13 05:39:03;;;;;;;6.85;6.00;;;20.20;68.90;;;;;;6211037;23;20008;-66
2022/09/13 05:41:29;;;;;;;7.80;6.20;;;20.20;68.90;;;;;;6211998;23;20341;-65
2022/09/13 05:43:55;;;;;;;7.25;5.57;;;20.20;68.90;;;;;;6211573;23;20079;-66
2022/09/13 05:46:21;;;;;;;7.88;5.53;;;20.20;69.00;;;;;;6212060;23;20476;-65
2022/09/13 05:48:47;;;;;;;7.63;5.60;;;20.20;69.00;;;;;;6212233;23;20418;-65
2022/09/13 05:51:16;;;;;;;7.25;5.95;;;20.20;69.10;;;;;;6212007;23;20004;-64
2022/09/13 05:53:43;;;;;;;6.78;6.05;;;20.20;69.20;;;;;;6211582;23;20076;-66
2022/09/13 05:56:12;;;;;;;7.80;6.13;;;20.20;69.30;;;;;;6211884;23;20004;-66
2022/09/13 05:58:39;;;;;;;7.50;5.97;;;20.20;69.40;;;;;;6212096;23;20008;-64
2022/09/13 06:01:05;;;;;;;7.47;6.13;;;20.20;69.40;;;;;;6208580;23;20013;-65
2022/09/13 06:03:31;;;;;;;6.82;6.13;;;20.20;69.40;;;;;;6210170;23;20019;-65
2022/09/13 06:05:57;;;;;;;7.70;6.13;;;20.30;69.40;;;;;;6210975;23;20000;-65
2022/09/13 06:08:28;;;;;;;8.50;6.82;;;20.30;69.30;;;;;;6208480;23;20083;-65
2022/09/13 06:10:59;;;;;;;6.70;6.00;;;20.40;69.40;;;;;;6210431;23;20035;-65
2022/09/13 06:13:25;;;;;;;7.00;6.30;;;20.40;69.20;;;;;;6212067;23;20005;-64
2022/09/13 06:15:53;;;;;;;8.43;6.53;;;20.40;69.10;;;;;;6211929;23;20000;-64
2022/09/13 06:18:18;;;;;;;7.45;6.38;;;20.50;69.10;;;;;;6209013;23;20004;-65
2022/09/13 06:20:44;;;;;;;9.40;6.93;;;20.50;68.90;;;;;;6214333;23;20027;-64
2022/09/13 06:23:10;;;;;;;8.32;6.85;;;20.60;68.70;;;;;;6211995;23;20016;-65
2022/09/13 06:25:36;;;;;;;9.07;6.93;;;20.60;68.70;;;;;;6212136;23;20330;-65
2022/09/13 06:28:02;;;;;;;10.50;7.07;;;20.70;68.70;;;;;;6211491;23;20004;-65
2022/09/13 06:30:28;;;;;;;8.80;6.90;;;20.70;68.60;;;;;;6212073;23;20005;-65
2022/09/13 06:32:56;;;;;;;8.25;6.75;;;20.70;68.50;;;;;;6214179;23;20311;-65
2022/09/13 06:35:21;;;;;;;8.20;7.00;;;20.80;68.50;;;;;;6212445;23;20448;-65
2022/09/13 06:37:47;;;;;;;10.13;7.88;;;20.70;68.40;;;;;;6211595;23;20005;-65
2022/09/13 06:40:12;;;;;;;8.60;6.82;;;20.80;68.50;;;;;;6212044;23;20001;-65
2022/09/13 06:42:38;;;;;;;8.52;6.78;;;20.80;68.50;;;;;;6211629;23;20028;-65
2022/09/13 06:45:04;;;;;;;11.32;7.63;;;20.90;68.50;;;;;;6210851;23;20024;-64
2022/09/13 06:47:30;;;;;;;9.20;7.65;;;20.90;68.40;;;;;;6210711;23;20322;-65
2022/09/13 06:49:56;;;;;;;9.00;7.38;;;20.90;68.30;;;;;;6211074;23;20080;-65
2022/09/13 06:52:22;;;;;;;9.55;7.00;;;21.00;68.20;;;;;;6211618;23;20422;-65
2022/09/13 06:54:47;;;;;;;10.40;8.25;;;21.10;68.20;;;;;;6211396;23;20050;-65
2022/09/13 06:57:13;;;;;;;9.13;7.60;;;21.20;68.10;;;;;;6210729;23;20001;-64
2022/09/13 06:59:38;;;;;;;11.02;8.35;;;21.30;68.00;;;;;;6211949;23;20080;-65
2022/09/13 07:02:04;;;;;;;8.90;7.05;;;21.40;67.80;;;;;;6211037;23;20003;-65
2022/09/13 07:04:30;;;;;;;9.52;7.50;;;21.40;67.70;;;;;;6211099;23;20004;-65
2022/09/13 07:06:57;;;;;;;10.00;7.72;;;21.50;67.60;;;;;;6212755;23;20001;-65
2022/09/13 07:09:23;;;;;;;10.60;8.73;;;21.50;67.60;;;;;;6213401;23;20004;-65
2022/09/13 07:11:51;;;;;;;9.95;8.02;;;21.40;67.50;;;;;;6211632;23;19997;-65
2022/09/13 07:14:22;;;;;;;10.52;8.63;;;21.50;67.70;;;;;;6211531;23;20007;-64
2022/09/13 07:16:50;;;;;;;9.93;8.20;;;21.50;67.70;;;;;;6212186;23;20004;-64
2022/09/13 07:19:19;;;;;;;10.82;8.25;;;21.50;67.80;;;;;;6208941;23;20084;-65
2022/09/13 07:21:45;;;;;;;9.65;7.03;;;21.50;67.90;;;;;;6211026;23;20058;-65
2022/09/13 07:24:11;;;;;;;10.25;8.65;;;21.50;67.90;;;;;;6210261;23;20341;-64
2022/09/13 07:26:37;;;;;;;10.57;8.30;;;21.60;68.00;;;;;;6210948;23;20001;-65
2022/09/13 07:29:06;;;;;;;11.10;7.78;;;21.60;68.00;;;;;;6210666;23;20005;-65
2022/09/13 07:31:36;;;;;;;10.05;7.82;;;21.70;68.00;;;;;;6210304;23;20004;-65
2022/09/13 07:34:06;;;;;;;11.25;8.38;;;21.90;67.90;;;;;;6210600;23;20434;-64
2022/09/13 07:36:33;;;;;;;11.52;9.05;;;22.10;67.60;;;;;;6209998;23;20008;-65
2022/09/13 07:39:00;;;;;;;10.48;8.10;;;22.20;67.30;;;;;;6210269;23;20434;-65
2022/09/13 07:41:27;;;;;;;11.55;8.52;;;22.40;67.10;;;;;;6209378;23;20434;-65
2022/09/13 07:43:53;;;;;;;11.10;8.55;;;22.50;66.80;;;;;;6210321;23;20083;-65
2022/09/13 07:46:21;;;;;;;14.80;9.02;;;22.60;66.60;;;;;;6210592;23;20005;-64
2022/09/13 07:48:47;;;;;;;8.95;6.63;;;22.70;66.70;;;;;;6209878;23;20024;-63
2022/09/13 07:51:18;;;;;;;11.15;8.23;;;22.80;66.70;;;;;;6211368;23;20457;-64
2022/09/13 07:53:45;;;;;;;8.30;6.18;;;22.90;66.90;;;;;;6210884;23;20027;-65
2022/09/13 07:56:16;;;;;;;8.32;6.40;;;23.00;66.80;;;;;;6210697;23;20606;-65
2022/09/13 07:58:43;;;;;;;7.07;5.43;;;23.20;66.70;;;;;;6210226;23;20012;-65
2022/09/13 08:01:40;;;;;;;7.78;5.40;;;23.30;66.60;;;;;;6210574;23;20008;-65
2022/09/13 08:04:12;;;;;;;6.97;4.80;;;23.50;66.50;;;;;;6191780;23;20333;-65
2022/09/13 08:06:39;;;;;;;8.13;5.20;;;23.50;66.60;;;;;;6211721;23;20058;-63
2022/09/13 08:09:07;;;;;;;5.30;4.03;;;23.40;67.40;;;;;;6212349;23;20342;-64
2022/09/13 08:11:37;;;;;;;4.30;3.33;;;23.40;67.00;;;;;;6212579;23;20001;-64
2022/09/13 08:14:04;;;;;;;4.35;3.45;;;23.50;67.20;;;;;;6212347;23;20004;-63
2022/09/13 08:16:30;;;;;;;4.70;3.75;;;23.60;67.10;;;;;;6211063;23;20070;-64
2022/09/13 08:19:00;;;;;;;6.60;4.40;;;23.50;67.20;;;;;;6212295;23;20019;-64
2022/09/13 08:21:32;;;;;;;7.72;4.80;;;23.50;67.50;;;;;;6213229;23;20028;-64
2022/09/13 08:23:59;;;;;;;6.63;4.82;;;23.30;67.80;;;;;;6213078;23;20449;-64
2022/09/13 08:26:29;;;;;;;9.30;6.70;;;23.30;68.00;;;;;;6212686;23;20005;-65
2022/09/13 08:28:56;;;;;;;9.15;6.25;;;23.20;68.10;;;;;;6212662;23;20008;-65
2022/09/13 08:31:22;;;;;;;8.88;7.50;;;23.20;68.30;;;;;;6211859;23;20011;-64
2022/09/13 08:33:48;;;;;;;9.25;7.05;;;23.20;68.40;;;;;;6212529;23;20004;-64
2022/09/13 08:36:15;;;;;;;10.45;7.72;;;23.10;68.50;;;;;;6212898;23;20000;-64
2022/09/13 08:38:46;;;;;;;10.63;8.18;;;23.10;68.40;;;;;;6210612;23;20001;-64
2022/09/13 08:41:47;;;;;;;9.63;7.60;;;23.10;68.60;;;;;;6213117;23;20000;-64
2022/09/13 08:44:32;;;;;;;13.18;9.18;;;23.20;68.50;;;;;;6209724;23;20012;-64
2022/09/13 08:47:21;;;;;;;12.38;9.50;;;23.20;68.30;;;;;;6212289;23;20004;-64
2022/09/13 08:49:51;;;;;;;11.27;8.05;;;23.20;68.40;;;;;;6212721;23;20027;-64
2022/09/13 08:52:40;;;;;;;12.80;9.30;;;23.20;68.60;;;;;;6212787;23;20001;-64
2022/09/13 08:55:22;;;;;;;9.70;7.55;;;23.20;68.90;;;;;;6212875;23;20000;-64
2022/09/13 08:58:15;;;;;;;8.65;6.13;;;23.20;69.40;;;;;;6211952;23;20005;-64
2022/09/13 09:00:48;;;;;;;9.23;6.55;;;23.40;68.70;;;;;;6210284;23;20003;-64
2022/09/13 09:03:13;;;;;;;7.82;5.90;;;23.40;68.50;;;;;;6212414;23;20372;-64
2022/09/13 09:05:46;;;;;;;7.15;5.72;;;23.40;68.60;;;;;;6211970;23;20055;-64
2022/09/13 09:08:39;;;;;;;6.40;4.50;;;23.40;68.50;;;;;;6211822;23;19997;-64
2022/09/13 09:11:21;;;;;;;7.65;5.18;;;23.40;68.50;;;;;;6211703;23;20000;-64
2022/09/13 09:13:54;;;;;;;6.10;4.78;;;23.40;68.50;;;;;;6212191;23;20004;-64
2022/09/13 09:16:36;;;;;;;6.72;5.60;;;23.40;68.60;;;;;;6212022;23;20414;-66
2022/09/13 09:19:15;;;;;;;6.20;4.80;;;23.40;68.70;;;;;;6211684;23;20111;-65
2022/09/13 09:21:43;;;;;;;5.75;4.05;;;23.50;68.60;;;;;;6210375;23;20008;-64
2022/09/13 09:24:18;;;;;;;6.10;4.10;;;23.50;68.40;;;;;;6211710;23;20008;-64
2022/09/13 09:26:44;;;;;;;5.82;4.47;;;23.50;68.40;;;;;;6211180;23;20016;-64
2022/09/13 09:29:17;;;;;;;6.68;4.20;;;23.40;68.50;;;;;;6211853;23;20108;-65
2022/09/13 09:32:20;;;;;;;6.22;4.20;;;23.30;68.70;;;;;;6211899;23;20068;-65
2022/09/13 09:35:05;;;;;;;6.10;3.85;;;23.30;68.80;;;;;;6211582;23;20008;-66
2022/09/13 09:37:32;;;;;;;6.80;4.30;;;23.40;68.60;;;;;;6211583;23;20009;-64
2022/09/13 09:40:01;;;;;;;4.80;3.83;;;23.30;68.50;;;;;;6211316;23;20413;-65
2022/09/13 09:42:31;;;;;;;3.35;2.67;;;23.40;68.60;;;;;;6211240;23;20027;-67
2022/09/13 09:45:04;;;;;;;4.32;2.78;;;23.40;68.40;;;;;;6211134;23;20083;-65
2022/09/13 09:47:44;;;;;;;3.65;3.10;;;23.50;68.30;;;;;;6211192;23;20194;-64
2022/09/13 09:50:16;;;;;;;3.70;2.55;;;23.50;68.10;;;;;;6211541;23;20007;-64
2022/09/13 09:53:16;;;;;;;2.65;2.20;;;23.60;67.90;;;;;;6212298;23;20016;-65
2022/09/13 09:55:47;;;;;;;4.15;2.97;;;23.50;67.80;;;;;;6211514;23;20012;-64
2022/09/13 09:58:17;;;;;;;2.60;2.40;;;23.60;67.80;;;;;;6210955;23;20008;-65
2022/09/13 10:00:54;;;;;;;2.88;2.55;;;23.70;67.70;;;;;;6211392;23;20004;-64
2022/09/13 10:03:27;;;;;;;3.88;3.17;;;23.80;67.50;;;;;;6211132;23;20341;-63
2022/09/13 10:06:24;;;;;;;3.70;2.53;;;23.80;67.20;;;;;;6210261;23;20007;-64
2022/09/13 10:09:00;;;;;;;3.13;2.60;;;23.80;67.00;;;;;;6193587;23;20042;-64
2022/09/13 10:11:46;;;;;;;6.72;2.33;;;23.90;67.00;;;;;;6211494;23;20001;-65
2022/09/13 10:14:33;;;;;;;4.25;2.58;;;24.00;66.80;;;;;;6211493;23;20007;-64
2022/09/13 10:17:05;;;;;;;2.42;2.22;;;24.00;66.50;;;;;;6211150;23;20592;-65
2022/09/13 10:19:31;;;;;;;3.65;2.30;;;24.00;66.50;;;;;;6212001;23;20063;-64
2022/09/13 10:22:10;;;;;;;3.42;2.67;;;24.00;66.30;;;;;;6211800;23;20008;-65
2022/09/13 10:24:35;;;;;;;2.90;2.22;;;24.00;66.20;;;;;;6211122;23;20012;-65
2022/09/13 10:27:03;;;;;;;3.60;2.28;;;24.00;66.10;;;;;;6210751;23;20039;-65
2022/09/13 10:29:30;;;;;;;2.70;2.08;;;24.10;66.00;;;;;;6211279;23;20393;-65
2022/09/13 10:31:57;;;;;;;3.03;2.63;;;24.10;66.00;;;;;;6211046;23;20311;-65
2022/09/13 10:34:29;;;;;;;3.00;2.42;;;24.00;65.90;;;;;;6210870;23;20080;-65
2022/09/13 10:37:01;;;;;;;3.30;2.00;;;24.00;65.90;;;;;;6210420;23;20000;-64
2022/09/13 10:39:30;;;;;;;2.47;2.10;;;24.10;65.90;;;;;;6210421;23;20452;-65
2022/09/13 10:42:01;;;;;;;2.53;1.85;;;24.10;65.70;;;;;;6210703;23;20001;-64
2022/09/13 10:44:40;;;;;;;2.80;1.53;;;24.20;65.50;;;;;;6211612;23;20088;-65
2022/09/13 10:47:12;;;;;;;2.08;1.38;;;24.30;66.10;;;;;;6211396;23;19997;-65
2022/09/13 10:49:53;;;;;;;;;;;24.40;65.10;;;;;;6211973;23;20124;-65
2022/09/13 10:52:41;;;;;;;2.43;1.80;;;24.40;64.80;;;;;;6210972;23;19904;-65
2022/09/13 10:55:18;;;;;;;1.70;1.40;;;24.40;64.60;;;;;;6210802;23;20005;-65
2022/09/13 10:57:48;;;;;;;2.63;1.48;;;24.40;64.60;;;;;;6210478;23;20001;-65
2022/09/13 11:00:24;;;;;;;1.70;1.30;;;24.40;64.50;;;;;;6210337;23;20000;-65
2022/09/13 11:03:07;;;;;;;2.05;1.60;;;24.40;64.40;;;;;;6210830;23;20015;-65
2022/09/13 11:05:58;;;;;;;3.42;1.50;;;24.40;64.30;;;;;;6210612;23;20007;-65
2022/09/13 11:08:42;;;;;;;1.70;1.33;;;24.40;64.20;;;;;;6209291;23;20512;-63
2022/09/13 11:11:41;;;;;;;1.85;1.30;;;24.40;64.00;;;;;;6210159;23;20004;-64
2022/09/13 11:14:45;;;;;;;2.65;1.30;;;24.50;64.20;;;;;;6210823;23;20062;-64
2022/09/13 11:17:23;;;;;;;2.60;1.20;;;24.70;63.70;;;;;;6210333;23;20055;-65
2022/09/13 11:20:28;;;;;;;2.10;1.30;;;24.80;63.40;;;;;;6210288;23;20035;-65
2022/09/13 11:23:06;;;;;;;1.77;1.38;;;25.00;63.10;;;;;;6210385;23;20116;-64
2022/09/13 11:25:54;;;;;;;1.58;1.38;;;24.90;62.60;;;;;;6210130;23;20004;-65
2022/09/13 11:28:43;;;;;;;1.60;1.10;;;24.90;62.90;;;;;;6209747;23;20015;-65
2022/09/13 11:31:29;;;;;;;1.35;1.00;;;25.00;62.80;;;;;;6210313;23;20027;-66
2022/09/13 11:34:37;;;;;;;1.38;1.00;;;25.00;63.10;;;;;;6210613;23;20026;-66
2022/09/13 11:37:13;;;;;;;1.67;1.08;;;25.00;62.30;;;;;;6210301;23;20001;-65
2022/09/13 11:39:46;;;;;;;1.23;0.80;;;25.00;61.90;;;;;;6210210;23;20079;-66
2022/09/13 11:42:11;;;;;;;0.90;0.82;;;25.00;62.00;;;;;;6210381;23;20005;-65
2022/09/13 11:45:00;;;;;;;0.93;0.73;;;25.00;61.90;;;;;;6210611;23;20080;-65
2022/09/13 11:47:39;;;;;;;0.90;0.90;;;25.10;61.60;;;;;;6210059;23;19996;-65
2022/09/13 11:50:22;;;;;;;2.35;0.90;;;25.10;60.80;;;;;;6209991;23;20012;-65
2022/09/13 11:52:52;;;;;;;1.98;1.10;;;25.20;61.00;;;;;;6209574;23;20008;-65
2022/09/13 11:55:24;;;;;;;2.03;0.95;;;25.20;60.80;;;;;;6210338;23;20001;-65
2022/09/13 11:57:57;;;;;;;1.40;0.85;;;25.30;60.80;;;;;;6210226;23;20000;-65
2022/09/13 12:00:33;;;;;;;0.95;0.65;;;25.20;61.10;;;;;;6210467;23;20008;-65
2022/09/13 12:03:14;;;;;;;1.10;0.80;;;25.20;60.50;;;;;;6208890;23;20037;-66
2022/09/13 12:06:06;;;;;;;0.60;0.50;;;25.20;60.30;;;;;;6210069;23;20003;-65
2022/09/13 12:08:36;;;;;;;;;;;25.30;60.60;;;;;;6170013;23;20032;-65
2022/09/13 12:11:18;;;;;;;1.33;0.82;;;25.20;60.50;;;;;;6210764;23;19907;-65
2022/09/13 12:13:48;;;;;;;0.70;0.60;;;25.10;60.60;;;;;;6210419;23;20027;-65
2022/09/13 12:16:47;;;;;;;0.65;0.50;;;25.10;60.30;;;;;;6210754;23;20027;-66
2022/09/13 12:19:26;;;;;;;0.77;0.60;;;25.10;60.30;;;;;;6210165;23;20008;-65
2022/09/13 12:21:56;;;;;;;1.48;0.55;;;25.20;60.30;;;;;;6210742;23;20012;-65
2022/09/13 12:24:39;;;;;;;1.00;0.50;;;25.40;60.20;;;;;;6209450;23;20000;-65
2022/09/13 12:27:28;;;;;;;0.95;0.90;;;25.40;59.70;;;;;;6206281;23;20075;-64
2022/09/13 12:30:04;;;;;;;1.63;0.90;;;25.40;59.40;;;;;;6209131;23;20021;-65
2022/09/13 12:32:30;;;;;;;1.98;0.60;;;25.60;59.10;;;;;;6210090;23;20009;-65
2022/09/13 12:35:04;;;;;;;1.38;0.80;;;25.70;58.90;;;;;;6210194;23;20020;-64
2022/09/13 12:37:41;;;;;;;1.23;0.60;;;25.80;58.40;;;;;;6207380;23;20007;-64
2022/09/13 12:40:36;;;;;;;0.70;0.70;;;26.00;58.30;;;;;;6209865;23;20000;-64
2022/09/13 12:43:20;;;;;;;0.50;0.50;;;26.20;58.00;;;;;;6210455;23;20005;-64
2022/09/13 12:46:19;;;;;;;1.13;0.80;;;26.50;57.50;;;;;;6210608;23;20050;-65
2022/09/13 12:49:05;;;;;;;1.00;0.73;;;26.70;56.90;;;;;;6210724;23;20036;-65
2022/09/13 12:51:45;;;;;;;1.00;0.60;;;26.70;56.30;;;;;;6164761;23;20004;-65
2022/09/13 12:54:48;;;;;;;1.45;1.08;;;26.80;56.20;;;;;;6210497;23;20009;-65
2022/09/13 12:57:33;;;;;;;0.90;0.70;;;26.90;55.60;;;;;;6211122;23;20008;-65
2022/09/13 13:00:10;;;;;;;1.17;0.82;;;27.00;55.60;;;;;;6212075;23;20016;-65
2022/09/13 13:03:10;;;;;;;0.70;0.70;;;27.00;54.90;;;;;;6211985;23;20008;-65
2022/09/13 13:05:49;;;;;;;0.75;0.60;;;27.10;54.90;;;;;;6212255;23;20422;-65
2022/09/13 13:08:20;;;;;;;1.98;0.80;;;27.40;54.80;;;;;;6211827;23;19997;-65
2022/09/13 13:11:04;;;;;;;;;;;27.50;54.10;;;;;;6212911;23;20016;-65
2022/09/13 13:13:45;;;;;;;1.88;0.60;;;27.50;54.00;;;;;;6211750;23;20447;-65
2022/09/13 13:16:27;;;;;;;0.65;0.60;;;27.60;53.80;;;;;;6212112;23;20476;-65
2022/09/13 13:19:04;;;;;;;1.30;0.45;;;27.60;53.50;;;;;;6212101;23;20035;-65
2022/09/13 13:21:37;;;;;;;0.73;0.60;;;27.40;53.10;;;;;;6212197;23;20011;-65
2022/09/13 13:24:15;;;;;;;1.15;0.70;;;27.20;53.10;;;;;;6212060;23;20011;-65